Time;durP1;ratioP1;P1;durP2;ratioP2;P2;SDS_P1;SDS_P2;PMS_P1;PMS_P2;Temp;Humidity;BMP_temperature;BMP_pressure;BME280_temperature;BME280_humidity;BME280_pressure;Samples;Min_cycle;Max_cycle;Signal;HPM_P1;HPM_P2
2022/01/24 00:56:29;;;;;;;9.93;3.33;;;1.50;99.90;;;;;;6155208;23;20101;-90
2022/01/24 00:59:13;;;;;;;8.53;3.60;;;1.30;99.90;;;;;;6133219;23;20089;-90
2022/01/24 01:02:10;;;;;;;7.10;2.97;;;1.40;99.90;;;;;;6252919;22;20568;-90
2022/01/24 01:05:30;;;;;;;11.13;3.00;;;1.40;99.90;;;;;;6276608;22;20010;-89
2022/01/24 01:21:57;;;;;;;;;;;;;;;;;;;;;
2022/01/24 01:28:13;;;;;;;9.10;3.40;;;1.20;99.90;;;;;;6037946;23;20031;-90
2022/01/24 01:38:16;;;;;;;9.43;3.17;;;1.20;99.90;;;;;;5960086;24;20056;-90
2022/01/24 01:57:27;;;;;;;7.77;3.13;;;1.20;99.90;;;;;;6124956;23;20048;-89
2022/01/24 02:14:31;;;;;;;7.47;2.97;;;1.20;99.90;;;;;;6233580;23;20004;-89
2022/01/24 02:27:10;;;;;;;6.53;2.77;;;1.10;99.90;;;;;;6121985;23;20516;-90
2022/01/24 02:56:24;;;;;;;7.45;2.83;;;1.00;99.90;;;;;;6301358;22;19988;-88
2022/01/24 02:59:21;;;;;;;;;;;1.00;99.90;;;;;;6270602;22;20066;-89
2022/01/24 03:02:21;;;;;;;6.40;2.57;;;0.90;99.90;;;;;;6297582;22;19906;-89
2022/01/24 03:05:12;;;;;;;6.80;3.00;;;1.00;99.90;;;;;;6278586;22;20008;-89
2022/01/24 03:08:32;;;;;;;7.17;3.00;;;0.90;99.90;;;;;;6277970;22;20061;-89
2022/01/24 03:11:13;;;;;;;6.60;2.57;;;0.90;99.90;;;;;;6222721;22;20007;-90
2022/01/24 03:14:22;;;;;;;5.83;2.33;;;0.90;99.90;;;;;;6250001;22;20082;-89
2022/01/24 03:17:06;;;;;;;;;;;;;;;;;;;;;
2022/01/24 03:26:25;;;;;;;8.67;3.50;;;0.80;99.90;;;;;;6216832;22;20004;-90
2022/01/24 03:29:30;;;;;;;9.00;3.43;;;0.70;99.90;;;;;;6252429;22;20480;-90
2022/01/24 03:38:07;;;;;;;;;;;;;;;;;;;;;
2022/01/24 03:41:39;;;;;;;;;;;;;;;;;;;;;
2022/01/24 03:59:28;;;;;;;;;;;;;;;;;;;;;
2022/01/24 04:43:29;;;;;;;8.68;3.55;;;0.50;99.90;;;;;;6249436;22;20015;-91
2022/01/24 04:56:40;;;;;;;;;;;;;;;;;;;;;
2022/01/24 05:02:57;;;;;;;8.43;3.73;;;0.40;99.90;;;;;;6274717;22;20004;-89
2022/01/24 05:05:53;;;;;;;9.20;3.93;;;0.40;99.90;;;;;;6248252;22;20014;-90
2022/01/24 05:24:57;;;;;;;8.80;2.93;;;0.40;99.90;;;;;;6276048;22;20345;-88
2022/01/24 05:38:25;;;;;;;12.60;3.47;;;0.50;99.90;;;;;;6133021;23;20025;-89
2022/01/24 05:41:37;;;;;;;7.67;3.53;;;0.50;99.90;;;;;;6217929;22;20434;-89
2022/01/24 05:48:16;;;;;;;11.60;4.70;;;0.60;99.90;;;;;;6181394;23;20013;-89
2022/01/24 05:51:33;;;;;;;10.43;4.80;;;0.50;99.90;;;;;;6180060;23;20024;-90
2022/01/24 05:56:36;;;;;;;11.43;4.57;;;0.60;99.90;;;;;;6276559;22;20434;-89
2022/01/24 05:59:04;;;;;;;10.57;4.63;;;0.60;99.90;;;;;;6248150;22;20011;-89
2022/01/24 06:01:35;;;;;;;10.67;4.13;;;0.60;99.90;;;;;;6248478;22;20035;-88
2022/01/24 06:04:00;;;;;;;9.10;4.77;;;0.50;99.90;;;;;;6249063;22;20341;-88
2022/01/24 06:06:35;;;;;;;12.83;4.83;;;0.50;99.90;;;;;;6274347;22;20138;-88
2022/01/24 06:09:51;;;;;;;10.73;4.80;;;0.50;99.90;;;;;;6273376;22;20008;-89
2022/01/24 06:12:41;;;;;;;10.17;4.53;;;0.50;99.90;;;;;;6275923;22;20004;-88
2022/01/24 06:15:28;;;;;;;9.70;4.57;;;0.50;99.90;;;;;;6273871;22;20016;-90
2022/01/24 06:17:56;;;;;;;9.97;5.17;;;0.40;99.90;;;;;;6274962;22;20385;-89
2022/01/24 06:21:44;;;;;;;11.83;4.57;;;0.40;99.90;;;;;;6275756;22;20000;-89
2022/01/24 06:56:35;;;;;;;;;;;;;;;;;;;;;
2022/01/24 07:08:21;;;;;;;13.23;5.50;;;0.50;99.90;;;;;;6272600;22;20027;-88
2022/01/24 07:11:48;;;;;;;12.23;5.77;;;0.50;99.90;;;;;;6267236;22;20004;-86
2022/01/24 07:18:57;;;;;;;12.43;5.17;;;0.60;99.90;;;;;;6275042;22;20004;-87
2022/01/24 07:21:27;;;;;;;;;;;;;;;;;;;;;
2022/01/24 07:32:28;;;;;;;14.93;6.13;;;0.80;99.90;;;;;;6278331;22;20343;-87
2022/01/24 07:35:52;;;;;;;;;;;;;;;;;;;;;
2022/01/24 07:38:43;;;;;;;10.93;5.30;;;0.90;99.90;;;;;;6305696;22;20464;-89
2022/01/24 07:41:47;;;;;;;10.50;4.97;;;0.90;99.90;;;;;;6278720;22;19999;-87
2022/01/24 07:44:38;;;;;;;12.90;5.97;;;0.80;99.90;;;;;;6303589;22;20000;-88
2022/01/24 07:47:32;;;;;;;12.77;5.40;;;0.90;99.90;;;;;;6279571;22;20003;-87
2022/01/24 07:50:15;;;;;;;12.63;5.77;;;1.00;99.90;;;;;;6278867;22;20034;-87
2022/01/24 07:52:49;;;;;;;15.47;5.97;;;1.10;99.90;;;;;;6307032;22;20006;-87
2022/01/24 07:55:15;;;;;;;13.07;5.67;;;1.10;99.90;;;;;;6308023;22;20064;-88
2022/01/24 07:57:41;;;;;;;13.30;6.17;;;1.10;99.90;;;;;;6283444;22;20091;-85
2022/01/24 08:00:10;;;;;;;13.87;5.80;;;1.10;99.90;;;;;;6308326;22;20014;-85
2022/01/24 08:02:37;;;;;;;13.03;6.33;;;1.10;99.90;;;;;;6306168;22;20074;-86
2022/01/24 08:05:04;;;;;;;12.50;6.30;;;1.20;99.90;;;;;;6305993;22;20003;-86
2022/01/24 08:07:29;;;;;;;15.67;6.77;;;1.20;99.90;;;;;;6278763;22;20011;-86
2022/01/24 08:09:55;;;;;;;14.10;5.87;;;1.20;99.90;;;;;;6277692;22;20468;-85
2022/01/24 08:12:20;;;;;;;16.23;6.43;;;1.30;99.90;;;;;;6278588;22;20056;-86
2022/01/24 08:14:46;;;;;;;13.37;6.13;;;1.30;99.90;;;;;;6306011;22;20161;-86
2022/01/24 08:17:11;;;;;;;11.63;5.30;;;1.30;99.90;;;;;;6305800;22;20010;-86
2022/01/24 08:19:37;;;;;;;11.60;5.37;;;1.30;99.90;;;;;;6277463;22;20003;-86
2022/01/24 08:22:04;;;;;;;10.87;5.80;;;1.40;99.90;;;;;;6278230;22;20049;-86
2022/01/24 08:24:30;;;;;;;13.33;5.47;;;1.40;99.90;;;;;;6305611;22;20000;-87
2022/01/24 08:26:55;;;;;;;13.20;5.90;;;1.40;99.90;;;;;;6305238;22;20003;-86
2022/01/24 08:29:21;;;;;;;11.63;5.27;;;1.50;99.90;;;;;;6304523;22;20441;-86
2022/01/24 08:31:46;;;;;;;16.60;5.67;;;1.50;99.90;;;;;;6272783;22;20008;-86
2022/01/24 08:34:12;;;;;;;10.93;5.57;;;1.50;99.90;;;;;;6272491;22;20053;-86
2022/01/24 08:36:38;;;;;;;11.00;5.43;;;1.60;99.90;;;;;;6272022;22;20000;-85
2022/01/24 08:39:08;;;;;;;13.77;6.37;;;1.60;99.90;;;;;;6271909;22;20016;-86
2022/01/24 08:44:31;;;;;;;14.03;6.07;;;1.60;99.90;;;;;;6278452;22;20073;-86
2022/01/24 08:46:58;;;;;;;12.53;5.83;;;1.70;99.90;;;;;;6272623;22;20472;-86
2022/01/24 08:49:23;;;;;;;12.53;6.33;;;1.70;99.90;;;;;;6267236;22;20011;-86
2022/01/24 08:51:50;;;;;;;10.23;6.00;;;1.70;99.90;;;;;;6274244;22;20333;-86
2022/01/24 08:54:16;;;;;;;13.00;6.03;;;1.80;99.90;;;;;;6274050;22;20094;-86
2022/01/24 08:56:42;;;;;;;12.93;6.03;;;1.80;99.90;;;;;;6247642;22;20334;-86
2022/01/24 08:59:08;;;;;;;11.27;5.90;;;1.90;99.90;;;;;;6273351;22;20439;-86
2022/01/24 09:01:36;;;;;;;13.93;5.60;;;2.00;99.90;;;;;;6272958;22;20023;-86
2022/01/24 09:04:02;;;;;;;12.70;5.60;;;2.00;99.90;;;;;;6272543;22;20019;-86
2022/01/24 09:06:29;;;;;;;11.47;5.90;;;2.10;99.90;;;;;;6274481;22;20007;-86
2022/01/24 09:08:56;;;;;;;10.90;5.07;;;2.20;99.90;;;;;;6271676;22;20103;-86
2022/01/24 09:11:30;;;;;;;10.23;5.33;;;2.30;99.90;;;;;;6272898;22;20086;-86
2022/01/24 09:13:57;;;;;;;11.43;5.47;;;2.40;99.90;;;;;;6272880;22;20029;-86
2022/01/24 09:16:22;;;;;;;8.07;4.53;;;2.50;99.90;;;;;;6273382;22;20007;-86
2022/01/24 09:18:48;;;;;;;9.07;4.80;;;2.60;99.90;;;;;;6272115;22;20450;-87
2022/01/24 09:21:14;;;;;;;8.23;4.83;;;2.60;99.90;;;;;;6272626;22;20007;-87
2022/01/24 09:23:39;;;;;;;10.50;4.40;;;2.70;99.90;;;;;;6272622;22;20087;-87
2022/01/24 09:26:05;;;;;;;11.47;4.90;;;2.80;99.90;;;;;;6272475;22;20319;-87
2022/01/24 09:28:31;;;;;;;8.20;4.50;;;2.80;99.90;;;;;;6272204;22;20007;-87
2022/01/24 09:30:57;;;;;;;9.23;4.40;;;2.90;99.90;;;;;;6272867;22;20004;-87
2022/01/24 09:33:24;;;;;;;10.17;4.40;;;3.00;99.90;;;;;;6272351;22;20141;-87
2022/01/24 09:35:51;;;;;;;8.30;4.63;;;3.00;99.90;;;;;;6247250;22;20003;-87
2022/01/24 09:38:17;;;;;;;10.43;4.90;;;3.10;99.90;;;;;;6272860;22;20015;-87
2022/01/24 09:40:43;;;;;;;10.93;4.90;;;3.10;99.90;;;;;;6247026;22;20008;-87
2022/01/24 09:43:09;;;;;;;8.57;4.47;;;3.10;99.90;;;;;;6247010;22;20030;-87
2022/01/24 09:45:36;;;;;;;11.47;5.27;;;3.20;99.90;;;;;;6274997;22;20031;-87
2022/01/24 09:48:03;;;;;;;7.27;4.00;;;3.20;99.90;;;;;;6248043;22;20003;-87
2022/01/24 09:50:29;;;;;;;7.70;3.63;;;3.20;99.90;;;;;;6270586;22;20007;-87
2022/01/24 09:52:55;;;;;;;10.67;4.53;;;3.20;99.90;;;;;;6247544;22;20030;-87
2022/01/24 09:55:23;;;;;;;9.33;3.93;;;3.20;99.90;;;;;;6247582;22;20078;-88
2022/01/24 09:57:49;;;;;;;9.53;4.43;;;3.30;99.90;;;;;;6246932;22;20087;-88
2022/01/24 10:00:19;;;;;;;10.27;4.67;;;3.30;99.90;;;;;;6246939;22;20079;-87
2022/01/24 10:02:46;;;;;;;8.83;3.67;;;3.30;99.90;;;;;;6247243;22;20007;-88
2022/01/24 10:05:16;;;;;;;8.60;4.20;;;3.30;99.90;;;;;;6273473;22;20019;-88
2022/01/24 10:07:53;;;;;;;6.30;2.97;;;3.30;99.90;;;;;;6272758;22;20003;-87
2022/01/24 10:10:51;;;;;;;9.37;3.53;;;3.30;99.90;;;;;;6273928;22;20019;-88
2022/01/24 10:16:48;;;;;;;6.97;3.27;;;3.50;99.90;;;;;;6273914;22;20057;-88
2022/01/24 10:19:21;;;;;;;6.60;3.10;;;3.50;99.90;;;;;;6269348;22;20011;-87
2022/01/24 10:21:51;;;;;;;6.10;2.83;;;3.50;99.90;;;;;;6247237;22;20007;-88
2022/01/24 10:24:26;;;;;;;6.17;3.40;;;3.50;99.90;;;;;;6275005;22;20043;-87
2022/01/24 10:27:09;;;;;;;7.10;3.03;;;3.60;99.90;;;;;;6276465;22;20030;-88
2022/01/24 10:30:02;;;;;;;6.13;2.80;;;3.70;99.90;;;;;;6248772;22;20004;-87
2022/01/24 10:33:04;;;;;;;5.23;2.77;;;3.80;99.90;;;;;;6248996;22;20061;-88
2022/01/24 10:35:44;;;;;;;8.20;2.47;;;3.80;99.90;;;;;;6152954;23;20005;-88
2022/01/24 10:38:55;;;;;;;6.67;2.83;;;3.90;99.90;;;;;;6263809;22;20008;-88
2022/01/24 10:41:39;;;;;;;5.97;2.93;;;3.90;99.90;;;;;;6152386;23;20005;-87
2022/01/24 10:44:04;;;;;;;5.73;2.70;;;4.00;99.90;;;;;;6273447;22;20004;-87
2022/01/24 10:46:30;;;;;;;5.63;2.50;;;4.00;99.90;;;;;;6279957;22;20440;-87
2022/01/24 10:49:09;;;;;;;6.53;3.00;;;4.10;99.90;;;;;;6248985;22;20008;-87
2022/01/24 10:51:40;;;;;;;4.97;2.20;;;4.10;99.90;;;;;;6274598;22;20061;-87
2022/01/24 10:54:05;;;;;;;4.83;2.10;;;4.20;99.90;;;;;;6277829;22;19996;-87
2022/01/24 10:56:40;;;;;;;5.83;2.37;;;4.20;99.90;;;;;;6274462;22;20077;-87
2022/01/24 10:59:12;;;;;;;7.73;2.77;;;4.30;99.90;;;;;;6275362;22;20026;-88
2022/01/24 11:01:39;;;;;;;5.22;2.03;;;4.40;99.90;;;;;;6274274;22;20114;-88
2022/01/24 11:04:16;;;;;;;5.03;2.43;;;4.30;99.90;;;;;;6276607;22;20142;-88
2022/01/24 11:06:44;;;;;;;7.57;2.70;;;4.40;99.90;;;;;;6275332;22;20041;-87
2022/01/24 11:09:23;;;;;;;5.67;2.47;;;4.40;99.90;;;;;;6275356;22;20015;-88
2022/01/24 11:11:50;;;;;;;6.00;2.67;;;4.50;99.90;;;;;;6287290;22;20024;-87
2022/01/24 11:14:18;;;;;;;5.27;2.30;;;4.50;99.90;;;;;;6280609;22;19999;-87
2022/01/24 11:16:44;;;;;;;5.30;2.63;;;4.50;99.90;;;;;;6274708;22;20000;-88
2022/01/24 11:19:17;;;;;;;5.93;2.40;;;4.40;99.90;;;;;;6274877;22;20030;-88
2022/01/24 11:21:44;;;;;;;4.60;2.10;;;4.40;99.90;;;;;;6273911;22;20342;-87
2022/01/24 11:24:16;;;;;;;6.27;2.27;;;4.50;99.90;;;;;;6273606;22;20011;-88
2022/01/24 11:26:43;;;;;;;5.45;2.40;;;4.50;99.90;;;;;;6273833;22;19999;-87
2022/01/24 11:29:09;;;;;;;5.30;2.03;;;4.60;99.90;;;;;;6274620;22;20003;-88
2022/01/24 11:31:50;;;;;;;4.13;2.17;;;4.60;99.90;;;;;;6272767;22;20658;-88
2022/01/24 11:34:30;;;;;;;6.17;2.20;;;4.80;99.90;;;;;;6275147;22;20083;-88
2022/01/24 11:36:56;;;;;;;6.73;2.87;;;4.90;99.90;;;;;;6273042;22;20053;-87
2022/01/24 11:39:23;;;;;;;6.43;2.20;;;4.90;99.90;;;;;;6271729;22;20378;-87
2022/01/24 11:41:49;;;;;;;4.63;1.97;;;4.90;99.90;;;;;;6273805;22;20015;-87
2022/01/24 11:44:20;;;;;;;5.20;1.83;;;5.00;99.90;;;;;;6273762;22;20589;-87
2022/01/24 11:46:55;;;;;;;4.73;1.90;;;5.10;99.90;;;;;;6247142;22;20007;-87
2022/01/24 11:49:25;;;;;;;7.13;1.70;;;5.10;99.90;;;;;;6272986;22;20004;-88
2022/01/24 11:52:16;;;;;;;4.53;1.80;;;5.10;99.90;;;;;;6272119;22;20035;-88
2022/01/24 11:58:48;;;;;;;;;;;;;;;;;;;;;
2022/01/24 12:01:55;;;;;;;5.87;1.53;;;5.30;99.90;;;;;;6281589;22;20042;-89
2022/01/24 12:04:58;;;;;;;4.13;1.63;;;5.40;99.90;;;;;;6279288;22;20027;-89
2022/01/24 12:07:43;;;;;;;7.67;1.90;;;5.40;99.90;;;;;;6281360;22;20010;-89
2022/01/24 12:10:34;;;;;;;3.50;1.50;;;5.50;99.90;;;;;;6272216;22;20348;-89
2022/01/24 12:13:40;;;;;;;4.43;1.73;;;5.60;99.90;;;;;;6285176;22;20018;-89
2022/01/24 12:16:16;;;;;;;4.53;1.30;;;5.60;99.90;;;;;;6286415;22;20055;-89
2022/01/24 12:19:27;;;;;;;6.53;1.37;;;5.70;99.90;;;;;;6262848;22;20003;-88
2022/01/24 12:30:10;;;;;;;;;;;;;;;;;;;;;
2022/01/24 12:33:43;;;;;;;;;;;;;;;;;;;;;
2022/01/24 12:46:44;;;;;;;2.43;1.03;;;6.00;99.90;;;;;;6073793;23;20015;-89
2022/01/24 12:53:39;;;;;;;3.63;1.37;;;6.00;99.90;;;;;;6099292;23;20013;-89
2022/01/24 13:00:20;;;;;;;4.17;1.20;;;6.00;99.90;;;;;;6022343;23;20011;-90
2022/01/24 13:24:23;;;;;;;6.23;1.53;;;6.40;99.90;;;;;;6285844;22;20015;-88
2022/01/24 13:27:35;;;;;;;;;;;;;;;;;;;;;
2022/01/24 13:31:04;;;;;;;2.93;1.00;;;6.30;99.90;;;;;;6282204;22;20062;-87
2022/01/24 13:33:45;;;;;;;2.43;0.87;;;6.50;99.90;;;;;;6190247;23;19997;-88
2022/01/24 13:43:05;;;;;;;;;;;;;;;;;;;;;
2022/01/24 13:46:23;;;;;;;;;;;;;;;;;;;;;
2022/01/24 13:49:27;;;;;;;4.33;1.10;;;6.70;99.90;;;;;;6285425;22;20118;-87
2022/01/24 13:51:54;;;;;;;3.43;1.10;;;6.70;99.90;;;;;;6221307;23;20001;-88
2022/01/24 13:54:56;;;;;;;2.93;1.10;;;6.80;99.90;;;;;;6284814;22;20428;-87
2022/01/24 13:58:06;;;;;;;2.63;1.10;;;6.80;99.90;;;;;;6285966;22;20007;-88
2022/01/24 14:01:06;;;;;;;5.07;1.50;;;6.90;99.90;;;;;;6226418;22;20425;-88
2022/01/24 14:04:41;;;;;;;3.00;1.13;;;6.90;99.90;;;;;;6259925;22;20000;-88
2022/01/24 14:07:41;;;;;;;3.43;1.17;;;6.90;99.90;;;;;;6196296;23;20456;-88
2022/01/24 14:10:40;;;;;;;2.67;1.23;;;6.90;99.90;;;;;;6237613;22;20011;-88
2022/01/24 14:13:34;;;;;;;3.27;1.10;;;6.90;99.90;;;;;;6287884;22;20012;-88
2022/01/24 14:16:11;;;;;;;3.00;1.10;;;6.90;99.90;;;;;;6256940;22;20107;-88
2022/01/24 14:19:00;;;;;;;2.30;1.00;;;7.00;99.90;;;;;;6227835;23;20004;-89
2022/01/24 14:21:25;;;;;;;4.43;1.20;;;7.10;99.90;;;;;;6223224;23;20064;-89
2022/01/24 14:24:11;;;;;;;2.30;1.10;;;7.10;99.90;;;;;;6224579;23;20011;-88
2022/01/24 14:26:47;;;;;;;4.03;1.40;;;7.10;99.90;;;;;;6224661;23;20004;-88
2022/01/24 14:29:19;;;;;;;2.80;1.40;;;7.20;99.90;;;;;;6251878;23;20031;-89
2022/01/24 14:31:47;;;;;;;;;;;7.20;99.90;;;;;;6223121;23;20000;-88
2022/01/24 14:34:23;;;;;;;2.97;1.20;;;7.20;99.90;;;;;;6247524;23;19923;-88
2022/01/24 14:37:05;;;;;;;3.20;1.20;;;7.20;99.90;;;;;;6219800;23;20445;-90
2022/01/24 14:40:02;;;;;;;3.78;1.25;;;7.20;99.90;;;;;;6220669;23;20040;-89
2022/01/24 14:42:46;;;;;;;2.27;0.93;;;7.20;99.90;;;;;;6249169;23;20031;-89
2022/01/24 14:45:11;;;;;;;3.50;1.27;;;7.20;99.90;;;;;;6227008;23;20093;-89
2022/01/24 14:47:37;;;;;;;3.30;1.33;;;7.30;99.90;;;;;;6227001;23;20447;-89
2022/01/24 14:50:09;;;;;;;2.57;0.93;;;7.70;99.90;;;;;;6227654;23;20083;-89
2022/01/24 14:53:15;;;;;;;2.90;1.40;;;8.30;99.90;;;;;;6228485;23;20434;-88
2022/01/24 14:56:18;;;;;;;;;;;;;;;;;;;;;
2022/01/24 14:59:28;;;;;;;3.65;1.30;;;9.50;99.90;;;;;;6258739;23;20004;-90
2022/01/24 15:02:07;;;;;;;3.77;1.33;;;10.00;99.90;;;;;;6231283;23;20090;-88
2022/01/24 15:04:33;;;;;;;4.33;1.33;;;9.80;99.90;;;;;;6235329;23;20076;-88
2022/01/24 15:10:21;;;;;;;4.37;1.10;;;9.50;99.90;;;;;;6262070;23;20004;-88
2022/01/24 15:13:04;;;;;;;2.70;1.10;;;9.20;99.90;;;;;;6237049;23;19992;-87
2022/01/24 15:15:32;;;;;;;;;;;9.10;99.90;;;;;;6258307;22;20012;-87
2022/01/24 15:26:44;;;;;;;3.73;1.17;;;7.30;99.90;;;;;;6300255;22;20033;-87
2022/01/24 15:29:18;;;;;;;4.03;1.50;;;6.90;99.90;;;;;;6286140;22;20069;-88
2022/01/24 15:31:57;;;;;;;2.80;1.27;;;6.50;99.90;;;;;;6287643;22;20007;-88
2022/01/24 15:34:49;;;;;;;4.23;1.10;;;6.20;99.90;;;;;;6286324;22;19996;-89
2022/01/24 15:37:33;;;;;;;2.75;1.10;;;5.90;99.90;;;;;;6282729;22;20007;-89
2022/01/24 15:40:15;;;;;;;;;;;;;;;;;;;;;
2022/01/24 15:43:03;;;;;;;2.65;1.30;;;5.60;99.90;;;;;;6286685;22;20035;-89
2022/01/24 15:48:54;;;;;;;4.53;1.27;;;5.30;99.90;;;;;;6288917;22;19996;-91
2022/01/24 15:51:37;;;;;;;3.63;1.40;;;5.20;99.90;;;;;;6268419;22;20000;-89
2022/01/24 15:54:13;;;;;;;4.83;1.43;;;5.00;99.90;;;;;;6292731;22;20007;-89
2022/01/24 15:59:09;;;;;;;7.00;2.23;;;4.90;99.90;;;;;;6289680;22;20075;-89
2022/01/24 16:01:36;;;;;;;4.10;1.77;;;4.80;99.90;;;;;;6283109;22;20015;-89
2022/01/24 16:04:06;;;;;;;4.60;1.90;;;4.70;99.90;;;;;;6286627;22;20012;-89
2022/01/24 16:06:35;;;;;;;3.43;1.60;;;4.70;99.90;;;;;;6286929;22;20090;-88
2022/01/24 16:09:06;;;;;;;4.40;1.43;;;4.60;99.90;;;;;;6285374;22;20038;-88
2022/01/24 16:11:35;;;;;;;3.90;1.97;;;4.60;99.90;;;;;;6287919;22;20003;-89
2022/01/24 16:14:33;;;;;;;;;;;;;;;;;;;;;
2022/01/24 16:17:25;;;;;;;7.37;1.67;;;4.40;99.90;;;;;;6284439;22;20023;-88
2022/01/24 16:26:12;;;;;;;5.67;1.77;;;4.10;99.90;;;;;;6261764;23;20039;-89
2022/01/24 16:32:39;;;;;;;;;;;;;;;;;;;;;
2022/01/24 16:41:33;;;;;;;;;;;;;;;;;;;;;
2022/01/24 16:47:23;;;;;;;6.00;2.47;;;3.60;99.90;;;;;;6255622;23;20015;-88
2022/01/24 16:49:55;;;;;;;12.43;2.67;;;3.50;99.90;;;;;;6251905;23;20032;-89
2022/01/24 16:53:13;;;;;;;10.50;2.97;;;3.60;99.90;;;;;;6227178;23;20027;-88
2022/01/24 16:56:17;;;;;;;7.10;2.77;;;3.50;99.90;;;;;;6226523;23;19996;-89
2022/01/24 17:02:44;;;;;;;9.23;3.23;;;3.30;99.90;;;;;;6216076;23;20016;-89
2022/01/24 17:05:25;;;;;;;9.30;3.20;;;3.30;99.90;;;;;;6222456;23;20008;-87
2022/01/24 17:11:43;;;;;;;6.53;3.23;;;3.20;99.90;;;;;;6228664;23;20008;-88
2022/01/24 17:14:37;;;;;;;7.93;2.80;;;3.00;99.90;;;;;;6212682;23;20122;-89
2022/01/24 17:20:13;;;;;;;8.87;3.17;;;3.10;99.90;;;;;;6260658;23;20010;-89
2022/01/24 17:25:59;;;;;;;6.27;2.90;;;3.00;99.90;;;;;;6260588;23;20027;-90
2022/01/24 17:28:40;;;;;;;7.67;3.13;;;3.00;99.90;;;;;;6261137;23;20545;-90
2022/01/24 17:31:19;;;;;;;;;;;;;;;;;;;;;
2022/01/24 17:34:27;;;;;;;8.03;3.30;;;3.00;99.90;;;;;;6257851;22;19997;-88
2022/01/24 17:37:11;;;;;;;7.57;2.90;;;2.90;99.90;;;;;;6255997;23;20004;-88
2022/01/24 17:40:04;;;;;;;10.37;3.37;;;2.80;99.90;;;;;;6232963;23;20023;-88
2022/01/24 17:55:55;;;;;;;6.80;3.20;;;2.60;99.90;;;;;;6270887;22;20046;-89
2022/01/24 17:58:29;;;;;;;8.00;3.43;;;2.60;99.90;;;;;;6255290;22;20008;-90
2022/01/24 18:00:56;;;;;;;7.00;3.07;;;2.50;99.90;;;;;;6253964;22;20030;-91
2022/01/24 18:03:40;;;;;;;7.47;3.63;;;2.50;99.90;;;;;;6252402;22;20004;-91
2022/01/24 18:06:11;;;;;;;10.37;3.70;;;2.50;99.90;;;;;;6222417;23;19997;-91
2022/01/24 18:08:43;;;;;;;11.23;3.90;;;2.40;99.90;;;;;;6248149;23;20316;-91
2022/01/24 18:11:40;;;;;;;12.65;3.90;;;2.40;99.90;;;;;;6249574;23;19996;-89
2022/01/24 18:22:10;;;;;;;7.33;3.90;;;2.30;99.90;;;;;;6263599;22;20020;-91
2022/01/24 18:25:16;;;;;;;8.53;3.50;;;2.30;99.90;;;;;;6282800;22;20027;-91
2022/01/24 18:28:06;;;;;;;8.43;3.70;;;2.30;99.90;;;;;;6203015;22;20006;-91
2022/01/24 18:30:50;;;;;;;8.67;3.80;;;2.20;99.90;;;;;;6281791;22;20062;-90
2022/01/24 18:33:25;;;;;;;7.37;3.63;;;2.10;99.90;;;;;;6255349;22;19999;-91
2022/01/24 18:36:31;;;;;;;8.57;3.70;;;2.20;99.90;;;;;;6226152;23;20003;-90
2022/01/24 18:39:03;;;;;;;9.07;3.70;;;2.20;99.90;;;;;;6173027;23;20092;-91
2022/01/24 18:41:40;;;;;;;;;;;2.20;99.90;;;;;;6247522;23;20012;-89
2022/01/24 18:48:00;;;;;;;;;;;;;;;;;;;;;
2022/01/24 18:51:27;;;;;;;10.90;4.40;;;2.00;99.90;;;;;;6184352;23;20088;-90
2022/01/24 18:54:03;;;;;;;10.77;4.40;;;2.00;99.90;;;;;;6195270;23;20011;-90
2022/01/24 18:57:02;;;;;;;11.07;5.03;;;2.00;99.90;;;;;;6252035;23;20008;-90
2022/01/24 19:06:03;;;;;;;10.60;5.27;;;1.80;99.90;;;;;;6251133;23;20008;-90
2022/01/24 19:08:36;;;;;;;9.43;4.80;;;1.80;99.90;;;;;;6247302;23;20015;-90
2022/01/24 19:11:23;;;;;;;9.73;4.50;;;1.70;99.90;;;;;;6250094;23;20004;-90
2022/01/24 19:13:48;;;;;;;12.97;4.87;;;1.60;99.90;;;;;;6244434;23;20308;-87
2022/01/24 19:16:14;;;;;;;9.97;4.80;;;1.70;99.90;;;;;;6242748;23;20107;-86
2022/01/24 19:18:47;;;;;;;12.03;4.70;;;1.70;99.90;;;;;;6238595;23;20000;-86
2022/01/24 19:24:00;;;;;;;10.40;4.53;;;1.70;99.90;;;;;;6241042;23;20093;-85
2022/01/24 19:26:26;;;;;;;12.57;4.63;;;1.60;99.90;;;;;;6242032;23;20003;-88
2022/01/24 19:28:53;;;;;;;9.60;4.80;;;1.70;99.90;;;;;;6241570;23;20042;-88
2022/01/24 19:31:20;;;;;;;10.43;4.80;;;1.70;99.90;;;;;;6245262;23;20075;-88
2022/01/24 19:33:46;;;;;;;11.03;4.50;;;1.60;99.90;;;;;;6247262;23;20054;-87
2022/01/24 19:36:13;;;;;;;12.17;4.57;;;1.70;99.90;;;;;;6215920;23;20008;-85
2022/01/24 19:38:40;;;;;;;8.40;4.23;;;1.70;99.90;;;;;;6242703;23;20000;-85
2022/01/24 19:41:06;;;;;;;14.80;4.70;;;1.70;99.90;;;;;;6241007;23;20077;-85
2022/01/24 19:43:33;;;;;;;14.77;5.33;;;1.70;99.90;;;;;;6219089;23;20386;-87
2022/01/24 19:45:59;;;;;;;10.50;5.17;;;1.70;99.90;;;;;;6243416;23;20008;-88
2022/01/24 19:48:27;;;;;;;11.23;3.83;;;1.70;99.90;;;;;;6219126;23;20000;-87
2022/01/24 19:51:03;;;;;;;11.67;4.93;;;1.60;99.90;;;;;;6219331;23;20000;-87
2022/01/24 19:53:31;;;;;;;10.43;4.40;;;1.60;99.90;;;;;;6220379;23;20000;-86
2022/01/24 19:56:18;;;;;;;14.10;5.40;;;1.50;99.90;;;;;;6247353;23;20000;-87
2022/01/24 19:58:49;;;;;;;9.80;4.03;;;1.50;99.90;;;;;;6245509;23;20651;-87
2022/01/24 20:01:15;;;;;;;12.07;4.28;;;1.50;99.90;;;;;;6218143;23;20015;-86
2022/01/24 20:03:41;;;;;;;10.90;5.03;;;1.50;99.90;;;;;;6244141;23;20251;-86
2022/01/24 20:06:07;;;;;;;11.63;5.93;;;1.50;99.90;;;;;;6245600;23;20004;-86
2022/01/24 20:08:34;;;;;;;11.37;4.73;;;1.50;99.90;;;;;;6244376;23;20083;-87
2022/01/24 20:11:00;;;;;;;12.07;4.40;;;1.50;99.90;;;;;;6244566;23;20506;-86
2022/01/24 20:13:26;;;;;;;13.23;4.77;;;1.50;99.90;;;;;;6244503;23;20080;-85
2022/01/24 20:15:53;;;;;;;9.87;4.67;;;1.50;99.90;;;;;;6243328;23;20031;-85
2022/01/24 20:18:23;;;;;;;11.80;5.37;;;1.40;99.90;;;;;;6217130;23;20433;-86
2022/01/24 20:20:53;;;;;;;9.87;4.40;;;1.40;99.90;;;;;;6242705;23;20015;-85
2022/01/24 20:23:20;;;;;;;11.17;4.80;;;1.40;99.90;;;;;;6217074;23;20004;-86
2022/01/24 20:25:52;;;;;;;12.53;4.77;;;1.40;99.90;;;;;;6217002;23;20016;-90
2022/01/24 20:28:19;;;;;;;12.43;5.00;;;1.40;99.90;;;;;;6242160;23;20005;-85
2022/01/24 20:30:45;;;;;;;9.93;4.57;;;1.40;99.90;;;;;;6217741;23;20375;-83
2022/01/24 20:33:14;;;;;;;11.23;5.13;;;1.40;99.90;;;;;;6217293;23;20006;-84
2022/01/24 20:35:40;;;;;;;13.00;4.90;;;1.40;99.90;;;;;;6245345;23;20059;-88
2022/01/24 20:38:09;;;;;;;14.60;5.27;;;1.30;99.90;;;;;;6218471;23;20004;-82
2022/01/24 20:40:40;;;;;;;10.97;4.70;;;1.30;99.90;;;;;;6196117;23;20004;-84
2022/01/24 20:43:06;;;;;;;12.27;4.93;;;1.30;99.90;;;;;;6220948;23;20004;-83
2022/01/24 20:45:34;;;;;;;12.07;5.53;;;1.30;99.90;;;;;;6221502;23;20590;-84
2022/01/24 20:48:00;;;;;;;11.87;5.33;;;1.30;99.90;;;;;;6217388;23;20006;-82
2022/01/24 20:50:32;;;;;;;12.83;5.27;;;1.30;99.90;;;;;;6247449;23;20004;-82
2022/01/24 20:53:00;;;;;;;9.67;3.70;;;1.20;99.90;;;;;;6222224;23;20004;-84
2022/01/24 20:55:28;;;;;;;13.17;4.53;;;1.20;99.90;;;;;;6246408;23;20007;-83
2022/01/24 20:57:56;;;;;;;10.83;4.37;;;1.10;99.90;;;;;;6247723;23;20007;-83
2022/01/24 21:00:23;;;;;;;11.57;5.33;;;1.10;99.90;;;;;;6219101;23;20027;-83
2022/01/24 21:02:49;;;;;;;13.43;5.00;;;1.10;99.90;;;;;;6220829;23;20470;-84
2022/01/24 21:05:14;;;;;;;13.47;5.07;;;1.10;99.90;;;;;;6245461;23;20011;-83
2022/01/24 21:07:47;;;;;;;11.43;4.90;;;1.10;99.90;;;;;;6246909;23;20082;-82
2022/01/24 21:10:21;;;;;;;11.10;4.63;;;1.10;99.90;;;;;;6247189;23;20075;-83
2022/01/24 21:15:22;;;;;;;12.88;4.18;;;1.10;99.90;;;;;;6250600;23;20403;-84
2022/01/24 21:17:50;;;;;;;13.97;5.70;;;1.00;99.90;;;;;;6246487;23;20002;-84
2022/01/24 21:20:16;;;;;;;11.17;5.00;;;1.00;99.90;;;;;;6221262;23;20019;-83
2022/01/24 21:22:42;;;;;;;13.73;5.87;;;1.00;99.90;;;;;;6246186;23;20008;-83
2022/01/24 21:25:08;;;;;;;16.60;6.20;;;1.00;99.90;;;;;;6246944;23;20008;-84
2022/01/24 21:27:35;;;;;;;16.23;6.77;;;1.00;99.90;;;;;;6247768;23;20000;-83
2022/01/24 21:30:00;;;;;;;13.70;5.87;;;1.00;99.90;;;;;;6246262;23;20327;-82
2022/01/24 21:32:26;;;;;;;13.63;6.33;;;1.00;99.90;;;;;;6220047;23;20050;-84
2022/01/24 21:37:21;;;;;;;13.30;5.50;;;1.00;99.90;;;;;;6250281;23;20011;-85
2022/01/24 21:39:47;;;;;;;13.43;5.77;;;1.00;99.90;;;;;;6248436;23;20159;-84
2022/01/24 21:42:13;;;;;;;10.43;5.20;;;1.00;99.90;;;;;;6247360;23;20005;-83
2022/01/24 21:44:39;;;;;;;13.20;5.50;;;1.00;99.90;;;;;;6222327;23;20153;-83
2022/01/24 21:47:06;;;;;;;11.33;4.93;;;1.00;99.90;;;;;;6249713;23;20012;-84
2022/01/24 21:49:33;;;;;;;12.07;5.63;;;0.90;99.90;;;;;;6247188;23;20012;-83
2022/01/24 21:51:59;;;;;;;13.23;5.37;;;1.00;99.90;;;;;;6249619;23;20462;-83
2022/01/24 21:54:25;;;;;;;11.87;5.67;;;1.00;99.90;;;;;;6248133;23;20023;-83
2022/01/24 21:56:51;;;;;;;11.70;5.07;;;1.00;99.90;;;;;;6221033;23;20000;-84
2022/01/24 21:59:19;;;;;;;14.23;5.40;;;1.00;99.90;;;;;;6249366;23;20000;-83
2022/01/24 22:01:44;;;;;;;11.63;5.57;;;1.00;99.90;;;;;;6224172;23;20004;-82
2022/01/24 22:04:11;;;;;;;12.80;4.70;;;1.00;99.90;;;;;;6252992;23;20019;-82
2022/01/24 22:06:38;;;;;;;11.70;5.27;;;1.00;99.90;;;;;;6252539;23;20069;-84
2022/01/24 22:09:05;;;;;;;10.87;5.50;;;1.00;99.90;;;;;;6220476;23;20039;-83